Time;durP1;ratioP1;P1;durP2;ratioP2;P2;SDS_P1;SDS_P2;PMS_P1;PMS_P2;Temp;Humidity;BMP_temperature;BMP_pressure;BME280_temperature;BME280_humidity;BME280_pressure;Samples;Min_cycle;Max_cycle;Signal;HPM_P1;HPM_P2
2022/12/03 00:00:34;;;;;;;22.95;6.63;;;;;;;;;;5067952;28;20499;-80
2022/12/03 00:03:00;;;;;;;13.73;5.07;;;;;;;;;;5073303;28;20047;-80
2022/12/03 00:05:26;;;;;;;15.32;6.35;;;;;;;;;;5070838;28;20037;-80
2022/12/03 00:07:52;;;;;;;12.60;5.75;;;;;;;;;;5070087;28;20024;-80
2022/12/03 00:10:18;;;;;;;16.88;6.47;;;;;;;;;;5069121;28;20028;-80
2022/12/03 00:12:44;;;;;;;12.90;6.07;;;3.60;99.90;;;;;;5070471;28;20028;-81
2022/12/03 00:15:10;;;;;;;16.38;7.15;;;;;;;;;;5068609;28;20481;-80
2022/12/03 00:17:36;;;;;;;18.25;6.03;;;;;;;;;;5072210;28;20585;-81
2022/12/03 00:20:02;;;;;;;14.55;5.40;;;;;;;;;;5070969;28;20020;-79
2022/12/03 00:22:28;;;;;;;24.30;7.38;;;;;;;;;;5070867;28;20020;-81
2022/12/03 00:24:54;;;;;;;18.52;7.25;;;;;;;;;;5073930;28;20020;-82
2022/12/03 00:27:20;;;;;;;21.40;7.70;;;;;;;;;;5068367;28;20328;-80
2022/12/03 00:29:46;;;;;;;17.00;6.20;;;;;;;;;;5070674;28;20031;-81
2022/12/03 00:32:13;;;;;;;18.17;7.32;;;;;;;;;;5073630;28;20409;-80
2022/12/03 00:34:38;;;;;;;23.75;7.20;;;;;;;;;;5079737;28;20039;-80
2022/12/03 00:37:04;;;;;;;21.80;8.10;;;;;;;;;;5080097;28;20531;-80
2022/12/03 00:39:30;;;;;;;14.18;6.20;;;;;;;;;;5075570;28;20181;-80
2022/12/03 00:41:56;;;;;;;20.10;8.93;;;;;;;;;;5069882;28;20265;-82
2022/12/03 00:44:22;;;;;;;18.98;7.57;;;;;;;;;;5075845;28;20032;-81
2022/12/03 00:46:48;;;;;;;18.42;7.55;;;;;;;;;;5074671;28;20033;-80
2022/12/03 00:49:14;;;;;;;13.80;7.05;;;;;;;;;;5077199;28;20078;-82
2022/12/03 00:51:40;;;;;;;18.85;6.50;;;;;;;;;;5068591;28;20033;-81
2022/12/03 00:54:06;;;;;;;17.60;6.68;;;;;;;;;;5070978;28;20032;-82
2022/12/03 00:56:32;;;;;;;14.25;6.38;;;;;;;;;;5074749;28;20024;-81
2022/12/03 00:58:58;;;;;;;23.48;8.77;;;;;;;;;;5074297;28;20013;-81
2022/12/03 01:01:24;;;;;;;20.42;7.00;;;3.20;99.90;;;;;;5080674;28;20054;-81
2022/12/03 01:03:50;;;;;;;22.10;7.53;;;;;;;;;;5078808;28;20024;-80
2022/12/03 01:06:16;;;;;;;22.70;7.85;;;;;;;;;;5077522;28;20031;-81
2022/12/03 01:08:41;;;;;;;20.98;8.07;;;;;;;;;;5082283;28;20028;-79
2022/12/03 01:11:36;;;;;;;11.32;6.55;;;;;;;;;;5076317;28;20043;-80
2022/12/03 01:13:53;;;;;;;20.48;7.00;;;;;;;;;;5070282;28;23183;-81
2022/12/03 01:16:19;;;;;;;19.50;8.65;;;;;;;;;;5069607;28;20170;-79
2022/12/03 01:18:45;;;;;;;27.45;7.80;;;;;;;;;;5075934;28;20262;-79
2022/12/03 01:21:11;;;;;;;15.32;6.50;;;;;;;;;;5071598;28;20036;-80
2022/12/03 01:23:37;;;;;;;26.05;9.27;;;;;;;;;;5069786;28;20025;-80
2022/12/03 01:26:03;;;;;;;25.38;7.35;;;;;;;;;;5071834;28;20032;-80
2022/12/03 01:28:30;;;;;;;24.10;9.52;;;;;;;;;;5070617;28;20668;-80
2022/12/03 01:33:41;;;;;;;22.42;9.32;;;;;;;;;;5068653;28;20047;-80
2022/12/03 01:36:07;;;;;;;26.70;7.97;;;;;;;;;;5073003;28;20028;-81
2022/12/03 01:38:33;;;;;;;29.83;10.80;;;;;;;;;;5063316;28;20039;-81
2022/12/03 01:40:59;;;;;;;27.90;10.35;;;;;;;;;;5062452;28;20044;-80
2022/12/03 01:43:25;;;;;;;24.38;8.75;;;;;;;;;;5070827;28;20044;-81
2022/12/03 01:45:51;;;;;;;22.45;7.97;;;;;;;;;;5065040;28;20028;-80
2022/12/03 01:48:17;;;;;;;26.95;10.23;;;;;;;;;;5072408;28;20031;-82
2022/12/03 01:50:43;;;;;;;21.60;8.43;;;;;;;;;;5074167;28;20032;-80
2022/12/03 01:53:11;;;;;;;19.77;8.52;;;;;;;;;;5067999;28;20074;-80
2022/12/03 01:55:37;;;;;;;30.00;9.30;;;;;;;;;;5062121;28;20461;-81
2022/12/03 01:58:03;;;;;;;18.70;8.10;;;2.90;99.90;;;;;;5068168;28;20027;-80
2022/12/03 02:00:30;;;;;;;21.55;9.32;;;;;;;;;;5070611;28;20059;-80
2022/12/03 02:03:00;;;;;;;23.40;9.30;;;;;;;;;;5068679;28;20036;-80
2022/12/03 02:05:28;;;;;;;27.20;9.55;;;2.70;99.90;;;;;;5065389;28;20051;-80
2022/12/03 02:07:54;;;;;;;20.42;8.38;;;;;;;;;;5062892;28;20073;-80
2022/12/03 02:10:29;;;;;;;25.38;10.48;;;;;;;;;;5062537;28;20027;-80
2022/12/03 02:13:02;;;;;;;24.23;8.82;;;3.50;99.90;;;;;;5063337;28;20119;-80
2022/12/03 02:15:27;;;;;;;18.45;7.63;;;3.20;99.90;;;;;;5066070;28;20483;-80
2022/12/03 02:17:54;;;;;;;23.45;8.65;;;;;;;;;;5072434;28;20028;-80
2022/12/03 02:20:20;;;;;;;18.25;8.48;;;;;;;;;;5063585;28;20031;-81
2022/12/03 02:22:51;;;;;;;24.13;9.25;;;;;;;;;;5066176;28;20065;-80
2022/12/03 02:25:19;;;;;;;22.65;9.10;;;;;;;;;;5066297;28;20128;-79
2022/12/03 02:27:46;;;;;;;25.30;9.07;;;;;;;;;;5058989;28;20082;-79
2022/12/03 02:30:14;;;;;;;12.82;6.22;;;3.60;99.90;;;;;;5074407;28;20028;-79
2022/12/03 02:32:40;;;;;;;29.42;11.45;;;;;;;;;;5069190;28;20066;-80
2022/12/03 02:35:12;;;;;;;28.65;9.45;;;;;;;;;;5071155;28;20028;-81
2022/12/03 02:37:38;;;;;;;37.65;9.93;;;3.10;99.90;;;;;;5069218;28;20055;-79
2022/12/03 02:40:08;;;;;;;24.60;8.35;;;;;;;;;;5068040;28;20419;-82
2022/12/03 02:42:34;;;;;;;28.50;9.23;;;;;;;;;;5060642;28;20032;-80
2022/12/03 02:45:10;;;;;;;27.38;8.85;;;2.70;99.90;;;;;;5066249;28;20067;-80
2022/12/03 02:47:42;;;;;;;21.83;10.10;;;;;;;;;;5066418;28;20028;-82
2022/12/03 02:50:09;;;;;;;24.52;8.95;;;;;;;;;;5067997;28;20046;-80
2022/12/03 02:52:35;;;;;;;28.52;9.70;;;;;;;;;;5070708;28;20028;-80
2022/12/03 02:55:02;;;;;;;24.55;9.65;;;;;;;;;;5065316;28;20028;-80
2022/12/03 02:57:29;;;;;;;26.50;9.38;;;;;;;;;;5064511;28;20025;-81
2022/12/03 02:59:55;;;;;;;35.70;11.63;;;;;;;;;;5064063;28;20029;-80
2022/12/03 03:02:21;;;;;;;28.05;12.30;;;;;;;;;;5063964;28;20047;-82
2022/12/03 03:04:47;;;;;;;22.67;10.15;;;;;;;;;;5064831;28;20020;-82
2022/12/03 03:07:13;;;;;;;31.38;9.00;;;;;;;;;;5063168;28;20040;-80
2022/12/03 03:09:39;;;;;;;21.35;9.85;;;;;;;;;;5069367;28;20028;-80
2022/12/03 03:12:05;;;;;;;23.95;9.38;;;;;;;;;;5069662;28;20503;-80
2022/12/03 03:14:32;;;;;;;28.63;8.82;;;;;;;;;;5064463;28;20024;-79
2022/12/03 03:16:58;;;;;;;31.42;10.88;;;;;;;;;;5073415;28;20376;-80
2022/12/03 03:19:28;;;;;;;32.70;11.57;;;;;;;;;;5072926;28;20024;-80
2022/12/03 03:21:54;;;;;;;28.98;10.15;;;;;;;;;;5068471;28;20037;-81
2022/12/03 03:24:21;;;;;;;38.88;9.05;;;;;;;;;;5068911;28;20024;-81
2022/12/03 03:26:47;;;;;;;22.58;10.48;;;;;;;;;;5067880;28;20074;-80
2022/12/03 03:29:13;;;;;;;25.50;10.32;;;;;;;;;;5074610;28;20029;-81
2022/12/03 03:31:40;;;;;;;27.15;9.38;;;2.40;99.90;;;;;;5067749;28;20171;-80
2022/12/03 03:34:07;;;;;;;26.38;10.27;;;;;;;;;;5070095;28;20111;-80
2022/12/03 03:36:33;;;;;;;27.92;10.93;;;;;;;;;;5069600;28;20017;-79
2022/12/03 03:38:59;;;;;;;26.85;9.90;;;;;;;;;;5072541;28;20674;-80
2022/12/03 03:41:26;;;;;;;27.70;10.35;;;3.50;99.90;;;;;;5068094;28;20067;-81
2022/12/03 03:43:52;;;;;;;26.42;10.10;;;;;;;;;;5078093;28;20051;-82
2022/12/03 03:46:19;;;;;;;22.50;7.93;;;2.50;99.90;;;;;;5075966;28;20043;-81
2022/12/03 03:48:47;;;;;;;24.48;8.80;;;;;;;;;;5073806;28;20031;-81
2022/12/03 03:51:13;;;;;;;26.80;8.75;;;;;;;;;;5076408;28;22771;-81
2022/12/03 03:53:43;;;;;;;18.90;8.23;;;2.50;99.90;;;;;;5075886;28;20115;-80
2022/12/03 03:56:09;;;;;;;21.38;9.23;;;;;;;;;;5072176;28;20071;-80
2022/12/03 03:58:36;;;;;;;22.98;8.57;;;;;;;;;;5079930;28;20024;-80
2022/12/03 04:01:01;;;;;;;21.90;9.57;;;;;;;;;;5073797;28;20032;-80
2022/12/03 04:03:28;;;;;;;32.95;10.20;;;;;;;;;;5073104;28;20088;-82
2022/12/03 04:05:54;;;;;;;31.70;9.35;;;;;;;;;;5079435;28;20085;-80
2022/12/03 04:08:20;;;;;;;22.02;10.48;;;;;;;;;;5073454;28;20070;-80
2022/12/03 04:13:31;;;;;;;29.02;9.70;;;;;;;;;;5068643;28;20181;-81
2022/12/03 04:15:57;;;;;;;37.60;11.60;;;;;;;;;;5073351;28;20060;-81
2022/12/03 04:24:10;;;;;;;24.65;8.93;;;;;;;;;;5069228;28;20541;-79
2022/12/03 04:29:20;;;;;;;25.10;9.02;;;;;;;;;;5068885;28;20043;-80
2022/12/03 04:37:15;;;;;;;24.10;9.25;;;;;;;;;;5074959;28;20090;-81
2022/12/03 04:39:41;;;;;;;29.67;9.60;;;;;;;;;;5068810;28;20171;-80
2022/12/03 04:42:08;;;;;;;28.70;10.15;;;;;;;;;;5071388;28;20484;-82
2022/12/03 04:44:37;;;;;;;24.83;9.52;;;;;;;;;;5074583;28;20051;-80
2022/12/03 04:47:03;;;;;;;26.85;10.18;;;;;;;;;;5073902;28;20645;-80
2022/12/03 04:49:29;;;;;;;27.67;9.27;;;;;;;;;;5073793;28;20036;-82
2022/12/03 04:51:55;;;;;;;26.83;9.70;;;;;;;;;;5077982;28;20029;-80
2022/12/03 04:54:21;;;;;;;23.73;9.70;;;;;;;;;;5073157;28;20032;-80
2022/12/03 04:56:47;;;;;;;13.88;7.07;;;;;;;;;;5072697;28;20028;-80
2022/12/03 04:59:13;;;;;;;21.58;8.40;;;;;;;;;;5065001;28;20017;-80
2022/12/03 05:01:39;;;;;;;23.27;9.40;;;3.10;99.90;;;;;;5065062;28;20127;-80
2022/12/03 05:04:05;;;;;;;23.52;9.43;;;;;;;;;;5073534;28;20021;-81
2022/12/03 05:06:31;;;;;;;21.52;9.32;;;;;;;;;;5081936;28;20095;-82
2022/12/03 05:08:57;;;;;;;20.00;8.52;;;;;;;;;;5074544;28;20031;-82
2022/12/03 05:11:23;;;;;;;29.40;9.95;;;;;;;;;;5071342;28;20051;-82
2022/12/03 05:13:50;;;;;;;32.97;10.13;;;;;;;;;;5076487;28;20563;-81
2022/12/03 05:16:16;;;;;;;23.15;9.00;;;;;;;;;;5083850;28;20008;-81
2022/12/03 05:18:42;;;;;;;26.08;9.63;;;;;;;;;;5073796;28;20468;-81
2022/12/03 05:21:08;;;;;;;27.60;10.98;;;;;;;;;;5076171;28;20105;-81
2022/12/03 05:23:33;;;;;;;20.67;8.35;;;;;;;;;;5081103;28;20021;-81
2022/12/03 05:25:59;;;;;;;20.23;8.88;;;;;;;;;;5075706;28;20025;-81
2022/12/03 05:28:25;;;;;;;28.13;9.18;;;;;;;;;;5080133;28;20057;-81
2022/12/03 05:30:51;;;;;;;23.38;8.25;;;;;;;;;;5079035;28;20565;-82
2022/12/03 05:33:17;;;;;;;25.35;10.05;;;;;;;;;;5077507;28;20028;-81
2022/12/03 05:35:43;;;;;;;30.27;10.27;;;;;;;;;;5075849;28;20032;-81
2022/12/03 05:38:09;;;;;;;28.73;9.25;;;;;;;;;;5080637;28;20032;-82
2022/12/03 05:40:35;;;;;;;24.85;10.13;;;;;;;;;;5077095;28;20036;-82
2022/12/03 05:43:01;;;;;;;26.30;10.25;;;;;;;;;;5072721;28;20112;-81
2022/12/03 05:45:38;;;;;;;34.28;10.43;;;;;;;;;;5072372;28;20421;-81
2022/12/03 05:48:04;;;;;;;19.30;9.43;;;;;;;;;;5068991;28;20586;-81
2022/12/03 05:50:31;;;;;;;24.65;9.50;;;;;;;;;;5079890;28;20032;-81
2022/12/03 05:52:58;;;;;;;27.73;9.68;;;;;;;;;;5072103;28;20101;-81
2022/12/03 05:55:24;;;;;;;36.75;10.85;;;;;;;;;;5075278;28;20028;-81
2022/12/03 05:57:50;;;;;;;22.15;9.77;;;;;;;;;;5074047;28;20043;-80
2022/12/03 06:00:16;;;;;;;25.70;8.82;;;;;;;;;;5075808;28;20031;-80
2022/12/03 06:02:42;;;;;;;19.60;8.18;;;;;;;;;;5081431;28;20900;-81
2022/12/03 06:05:09;;;;;;;21.13;9.38;;;;;;;;;;5072900;28;20024;-81
2022/12/03 06:07:36;;;;;;;21.75;9.05;;;;;;;;;;5075671;28;20029;-81
2022/12/03 06:10:02;;;;;;;25.33;9.52;;;;;;;;;;5075629;28;20037;-81
2022/12/03 06:12:28;;;;;;;27.80;9.23;;;;;;;;;;5089646;28;20012;-81
2022/12/03 06:14:54;;;;;;;24.75;9.60;;;;;;;;;;5089009;28;20047;-80
2022/12/03 06:17:20;;;;;;;23.80;8.48;;;;;;;;;;5085278;28;20046;-79
2022/12/03 06:19:46;;;;;;;21.75;9.75;;;;;;;;;;5062841;28;20016;-79
2022/12/03 06:22:12;;;;;;;22.27;8.80;;;;;;;;;;5076075;28;20048;-79
2022/12/03 06:24:38;;;;;;;28.10;10.13;;;;;;;;;;5067926;28;20040;-81
2022/12/03 06:27:04;;;;;;;29.50;10.95;;;;;;;;;;5077595;28;20032;-80
2022/12/03 06:29:30;;;;;;;30.63;10.05;;;;;;;;;;5066733;28;20025;-80
2022/12/03 06:31:56;;;;;;;31.67;9.20;;;;;;;;;;5066481;28;20036;-79
2022/12/03 06:34:22;;;;;;;20.60;8.05;;;;;;;;;;5060124;28;20013;-79
2022/12/03 06:36:49;;;;;;;23.23;8.55;;;;;;;;;;5062026;28;20047;-80
2022/12/03 06:39:15;;;;;;;32.40;11.13;;;;;;;;;;5067197;28;20021;-82
2022/12/03 06:41:41;;;;;;;21.27;9.18;;;;;;;;;;5068133;28;20571;-80
2022/12/03 06:44:07;;;;;;;22.08;9.32;;;;;;;;;;5066448;28;20070;-81
2022/12/03 06:46:33;;;;;;;29.30;11.15;;;;;;;;;;5063545;28;20056;-82
2022/12/03 06:48:59;;;;;;;32.40;11.93;;;;;;;;;;5068939;28;20032;-81
2022/12/03 06:51:25;;;;;;;33.15;9.48;;;;;;;;;;5069867;28;20242;-81
2022/12/03 06:53:51;;;;;;;22.95;8.57;;;;;;;;;;5069260;28;20074;-81
2022/12/03 06:56:17;;;;;;;27.27;9.32;;;;;;;;;;5072191;28;20028;-81
2022/12/03 06:58:43;;;;;;;35.63;11.52;;;;;;;;;;5069918;28;20035;-82
2022/12/03 07:01:09;;;;;;;29.10;9.55;;;;;;;;;;5065687;28;20032;-82
2022/12/03 07:03:51;;;;;;;26.35;8.15;;;;;;;;;;5066329;28;20068;-82
2022/12/03 07:06:16;;;;;;;34.00;9.80;;;;;;;;;;5066790;28;20039;-82
2022/12/03 07:08:42;;;;;;;23.33;9.20;;;;;;;;;;5059156;28;20254;-83
2022/12/03 07:11:29;;;;;;;21.27;7.05;;;;;;;;;;5056855;28;20102;-83
2022/12/03 07:13:55;;;;;;;30.45;10.40;;;;;;;;;;5067712;28;20756;-81
2022/12/03 07:16:21;;;;;;;33.40;11.65;;;;;;;;;;5074743;28;20037;-82
2022/12/03 07:18:47;;;;;;;27.40;9.82;;;;;;;;;;5070279;28;20016;-88
2022/12/03 07:21:13;;;;;;;24.75;10.45;;;;;;;;;;5066845;28;20045;-85
2022/12/03 07:23:39;;;;;;;39.40;13.88;;;;;;;;;;5055793;28;20027;-84
2022/12/03 07:26:05;;;;;;;40.75;11.50;;;;;;;;;;5069481;28;20029;-83
2022/12/03 07:28:31;;;;;;;30.25;10.90;;;;;;;;;;5072624;28;20021;-84
2022/12/03 07:30:57;;;;;;;29.80;10.85;;;;;;;;;;5062858;28;20078;-82
2022/12/03 07:33:23;;;;;;;22.20;9.63;;;;;;;;;;5054198;28;22599;-83
2022/12/03 07:35:49;;;;;;;22.95;8.75;;;;;;;;;;5071493;28;20024;-83
2022/12/03 07:38:15;;;;;;;28.35;9.95;;;;;;;;;;5063036;28;20021;-85
2022/12/03 07:40:41;;;;;;;25.15;9.98;;;;;;;;;;5077950;28;20044;-82
2022/12/03 07:43:07;;;;;;;25.60;9.20;;;;;;;;;;5071464;28;20028;-86
2022/12/03 07:45:33;;;;;;;23.88;10.75;;;;;;;;;;5071249;28;20029;-84
2022/12/03 07:47:59;;;;;;;30.65;10.93;;;;;;;;;;5074650;28;20020;-85
2022/12/03 07:50:27;;;;;;;19.45;8.55;;;;;;;;;;5063224;28;20029;-85
2022/12/03 07:52:53;;;;;;;27.10;9.38;;;;;;;;;;5068314;28;20044;-86
2022/12/03 07:55:20;;;;;;;20.95;7.95;;;;;;;;;;5067651;28;20111;-85
2022/12/03 07:57:45;;;;;;;28.15;11.05;;;;;;;;;;5070643;28;20682;-81
2022/12/03 08:00:12;;;;;;;28.33;9.90;;;;;;;;;;5068057;28;20154;-83
2022/12/03 08:02:38;;;;;;;22.90;8.57;;;;;;;;;;5071292;28;20033;-81
2022/12/03 08:05:04;;;;;;;32.15;9.93;;;;;;;;;;5072155;28;20074;-81
2022/12/03 08:07:30;;;;;;;23.45;8.73;;;;;;;;;;5062405;28;21498;-82
2022/12/03 08:09:56;;;;;;;28.75;12.60;;;;;;;;;;5065950;28;20039;-81
2022/12/03 08:12:41;;;;;;;33.15;11.52;;;;;;;;;;5064665;28;20385;-81
2022/12/03 08:15:15;;;;;;;20.83;8.35;;;;;;;;;;5071220;28;20032;-79
2022/12/03 08:17:41;;;;;;;28.58;12.07;;;;;;;;;;5074356;28;20032;-80
2022/12/03 08:20:10;;;;;;;21.23;9.63;;;;;;;;;;5074432;28;20032;-80
2022/12/03 08:22:36;;;;;;;23.50;9.43;;;;;;;;;;5074967;28;20032;-81
2022/12/03 08:25:05;;;;;;;21.75;10.30;;;;;;;;;;5067273;28;20051;-80
2022/12/03 08:27:31;;;;;;;21.98;8.90;;;;;;;;;;5076267;28;20048;-79
2022/12/03 08:30:00;;;;;;;22.20;9.38;;;;;;;;;;5074232;28;20036;-79
2022/12/03 08:32:27;;;;;;;21.52;7.38;;;;;;;;;;5073859;28;20031;-78
2022/12/03 08:34:53;;;;;;;22.35;8.23;;;;;;;;;;5053889;28;20106;-78
2022/12/03 08:37:19;;;;;;;26.42;9.32;;;;;;;;;;5058827;28;20060;-81
2022/12/03 08:39:47;;;;;;;24.60;9.52;;;;;;;;;;5066220;28;20032;-79
2022/12/03 08:42:40;;;;;;;23.10;9.90;;;3.90;99.90;;;;;;5072370;28;20493;-80
2022/12/03 08:45:18;;;;;;;17.25;8.70;;;;;;;;;;5070515;28;20033;-80
2022/12/03 08:47:44;;;;;;;23.88;9.23;;;;;;;;;;5074240;28;20032;-81
2022/12/03 08:50:27;;;;;;;22.02;10.10;;;;;;;;;;5070736;28;20036;-80
2022/12/03 08:52:54;;;;;;;22.30;8.73;;;;;;;;;;5072521;28;20032;-80
2022/12/03 08:55:35;;;;;;;23.75;9.02;;;4.00;99.90;;;;;;5074932;28;20025;-80
2022/12/03 08:58:05;;;;;;;29.10;9.93;;;;;;;;;;5070723;28;20033;-80
2022/12/03 09:00:31;;;;;;;29.30;10.43;;;;;;;;;;5073010;28;20028;-82
2022/12/03 09:02:59;;;;;;;22.38;9.02;;;4.10;99.90;;;;;;5075155;28;20042;-80
2022/12/03 09:05:27;;;;;;;27.88;10.40;;;;;;;;;;5074644;28;20054;-80
2022/12/03 09:07:52;;;;;;;24.13;10.02;;;4.20;99.90;;;;;;5071614;28;20059;-80
2022/12/03 09:10:18;;;;;;;21.17;8.02;;;;;;;;;;5071245;28;20020;-81
2022/12/03 09:12:44;;;;;;;18.83;7.65;;;;;;;;;;5074338;28;20017;-80
2022/12/03 09:15:10;;;;;;;19.95;7.80;;;;;;;;;;5077673;28;20499;-80
2022/12/03 09:17:36;;;;;;;28.77;9.98;;;;;;;;;;5079867;28;20112;-80
2022/12/03 09:20:03;;;;;;;24.30;10.18;;;;;;;;;;5076001;28;20461;-80
2022/12/03 09:22:29;;;;;;;21.90;8.40;;;;;;;;;;5071855;28;20053;-80
2022/12/03 09:24:55;;;;;;;27.42;10.13;;;;;;;;;;5073818;28;20028;-81
2022/12/03 09:27:21;;;;;;;19.88;9.10;;;;;;;;;;5077406;28;20092;-80
2022/12/03 09:29:48;;;;;;;26.05;10.43;;;4.30;99.90;;;;;;5078262;28;20098;-80
2022/12/03 09:32:14;;;;;;;29.50;9.38;;;;;;;;;;5079433;28;20040;-81
2022/12/03 09:34:41;;;;;;;18.80;8.63;;;;;;;;;;5077658;28;20051;-80
2022/12/03 09:37:07;;;;;;;22.42;9.57;;;;;;;;;;5072979;28;20086;-82
2022/12/03 09:39:33;;;;;;;19.77;9.10;;;;;;;;;;5075717;28;20103;-82
2022/12/03 09:41:59;;;;;;;18.92;7.75;;;;;;;;;;5075389;28;20070;-81
2022/12/03 09:44:28;;;;;;;22.77;8.85;;;4.20;99.90;;;;;;5069196;28;20381;-81
2022/12/03 09:46:58;;;;;;;25.27;9.05;;;;;;;;;;5077120;28;20024;-82
2022/12/03 09:49:25;;;;;;;21.98;8.52;;;;;;;;;;5070478;28;20036;-83
2022/12/03 09:51:51;;;;;;;20.30;8.48;;;;;;;;;;5070679;28;20115;-83
2022/12/03 09:54:23;;;;;;;26.08;8.80;;;4.20;99.90;;;;;;5074721;28;20036;-82
2022/12/03 09:56:49;;;;;;;15.40;7.93;;;;;;;;;;5070796;28;20370;-82
2022/12/03 09:59:15;;;;;;;20.60;8.15;;;3.90;99.90;;;;;;5066360;28;20089;-82
2022/12/03 10:01:41;;;;;;;20.83;10.13;;;;;;;;;;5079051;28;20029;-82
2022/12/03 10:04:07;;;;;;;24.23;9.40;;;;;;;;;;5077294;28;20024;-81
2022/12/03 10:06:33;;;;;;;32.90;10.98;;;;;;;;;;5079164;28;20104;-81
2022/12/03 10:08:59;;;;;;;25.77;8.60;;;;;;;;;;5078527;28;20028;-81
2022/12/03 10:11:26;;;;;;;20.60;8.63;;;;;;;;;;5073720;28;20031;-80
2022/12/03 10:13:52;;;;;;;20.67;9.00;;;;;;;;;;5074697;28;20124;-81
2022/12/03 10:16:19;;;;;;;19.63;7.78;;;;;;;;;;5073370;28;20024;-81
2022/12/03 10:18:50;;;;;;;20.35;7.53;;;;;;;;;;5076392;28;20055;-80
2022/12/03 10:21:26;;;;;;;22.67;10.20;;;;;;;;;;5073682;28;20041;-81
2022/12/03 10:24:11;;;;;;;25.02;10.88;;;;;;;;;;5072671;28;20567;-80
2022/12/03 10:26:39;;;;;;;19.40;7.65;;;;;;;;;;5076363;28;20032;-81
2022/12/03 10:29:11;;;;;;;21.13;8.65;;;;;;;;;;5077610;28;20028;-81
2022/12/03 10:31:38;;;;;;;23.52;8.50;;;;;;;;;;5074790;28;20025;-80
2022/12/03 10:34:04;;;;;;;19.30;8.75;;;;;;;;;;5079873;28;20036;-80
2022/12/03 10:36:30;;;;;;;19.42;8.73;;;;;;;;;;5076373;28;20033;-81
2022/12/03 10:39:09;;;;;;;26.17;7.63;;;4.20;99.90;;;;;;5078042;28;20401;-80
2022/12/03 10:41:35;;;;;;;16.45;8.05;;;;;;;;;;5076768;28;20043;-80
2022/12/03 10:44:12;;;;;;;19.30;7.78;;;;;;;;;;5074747;28;20129;-81
2022/12/03 10:46:37;;;;;;;15.80;6.20;;;;;;;;;;5076122;28;20108;-80
2022/12/03 10:49:14;;;;;;;21.30;6.70;;;4.20;99.90;;;;;;5080860;28;20021;-80
2022/12/03 10:51:40;;;;;;;18.75;6.95;;;;;;;;;;5071542;28;20045;-81
2022/12/03 10:54:22;;;;;;;16.17;5.55;;;4.40;99.90;;;;;;5072522;28;20065;-80
2022/12/03 10:56:50;;;;;;;22.38;6.57;;;4.50;99.90;;;;;;5069499;28;20084;-80
2022/12/03 10:59:22;;;;;;;20.80;7.45;;;5.40;99.90;;;;;;5077176;28;20377;-81
2022/12/03 11:01:49;;;;;;;13.20;6.13;;;;;;;;;;5077668;28;20081;-80
2022/12/03 11:04:33;;;;;;;14.45;5.93;;;5.40;99.90;;;;;;5076687;28;20032;-81
2022/12/03 11:07:01;;;;;;;12.93;6.03;;;4.40;99.90;;;;;;5078110;28;20024;-81
2022/12/03 11:09:29;;;;;;;19.77;6.78;;;;;;;;;;5068847;28;20017;-81
2022/12/03 11:11:55;;;;;;;17.75;5.85;;;;;;;;;;5076040;28;20031;-81
2022/12/03 11:14:40;;;;;;;13.48;6.20;;;;;;;;;;5075820;28;20055;-81
2022/12/03 11:17:06;;;;;;;18.55;6.53;;;;;;;;;;5073119;28;20028;-81
2022/12/03 11:19:35;;;;;;;19.05;7.05;;;4.30;99.90;;;;;;5079255;28;20028;-80
2022/12/03 11:22:03;;;;;;;19.17;7.57;;;4.40;99.90;;;;;;5078917;28;20052;-83
2022/12/03 11:24:34;;;;;;;14.50;6.65;;;4.30;99.90;;;;;;5081605;28;20035;-83
2022/12/03 11:27:00;;;;;;;16.20;6.35;;;;;;;;;;5088349;28;20032;-82
2022/12/03 11:29:45;;;;;;;18.60;6.68;;;;;;;;;;5086096;28;21199;-81
2022/12/03 11:32:11;;;;;;;16.00;6.15;;;;;;;;;;5079341;28;20052;-82
2022/12/03 11:34:36;;;;;;;14.80;5.97;;;;;;;;;;5060836;28;20059;-80
2022/12/03 11:37:11;;;;;;;21.00;6.32;;;;;;;;;;5068957;28;20468;-81
2022/12/03 11:39:49;;;;;;;15.35;6.75;;;4.20;99.90;;;;;;5072667;28;20052;-81
2022/12/03 11:42:24;;;;;;;15.25;6.57;;;;;;;;;;5063898;28;20040;-80
2022/12/03 11:45:05;;;;;;;15.82;6.43;;;;;;;;;;5068775;28;20051;-81
2022/12/03 11:47:31;;;;;;;16.92;7.63;;;;;;;;;;5068516;28;20036;-81
2022/12/03 11:49:56;;;;;;;14.80;6.88;;;4.20;99.90;;;;;;5067868;28;20048;-81
2022/12/03 11:52:27;;;;;;;20.15;7.25;;;;;;;;;;5063296;28;20047;-80
2022/12/03 11:54:56;;;;;;;24.02;7.30;;;;;;;;;;5064313;28;20090;-80
2022/12/03 11:57:33;;;;;;;20.70;6.25;;;;;;;;;;5070855;28;20067;-81
2022/12/03 12:00:00;;;;;;;13.60;5.88;;;;;;;;;;5076832;28;20044;-80
2022/12/03 12:02:26;;;;;;;23.52;8.32;;;;;;;;;;5076073;28;20465;-80
2022/12/03 12:04:52;;;;;;;20.20;8.43;;;;;;;;;;5071089;28;20142;-80
2022/12/03 12:07:36;;;;;;;19.27;7.60;;;;;;;;;;5064011;28;20029;-81
2022/12/03 12:10:03;;;;;;;24.20;9.43;;;;;;;;;;5074713;28;20052;-80
2022/12/03 12:12:31;;;;;;;19.83;7.07;;;;;;;;;;5068204;28;20161;-80
2022/12/03 12:15:20;;;;;;;22.83;7.75;;;;;;;;;;5076426;28;20146;-81
2022/12/03 12:17:46;;;;;;;25.15;7.43;;;;;;;;;;5065479;28;20029;-81
2022/12/03 12:20:25;;;;;;;20.38;7.90;;;;;;;;;;5069582;28;20671;-81
2022/12/03 12:22:52;;;;;;;24.77;8.98;;;;;;;;;;5069590;28;20416;-80
2022/12/03 12:25:36;;;;;;;19.25;9.30;;;3.90;99.90;;;;;;5070054;28;20031;-80
2022/12/03 12:28:02;;;;;;;25.33;7.95;;;;;;;;;;5070011;28;20032;-81
2022/12/03 12:30:28;;;;;;;35.95;10.23;;;;;;;;;;5075002;28;20028;-81
2022/12/03 12:33:06;;;;;;;23.23;7.43;;;;;;;;;;5075554;28;20035;-81
2022/12/03 12:35:32;;;;;;;26.27;9.43;;;;;;;;;;5075309;28;20032;-81
2022/12/03 12:38:09;;;;;;;22.70;6.95;;;;;;;;;;5069336;28;20377;-81
2022/12/03 12:40:37;;;;;;;25.02;6.38;;;4.00;99.90;;;;;;5068809;28;20032;-81
2022/12/03 12:43:10;;;;;;;12.75;5.55;;;4.00;99.90;;;;;;5065143;28;20031;-80
2022/12/03 12:45:38;;;;;;;22.05;7.15;;;;;;;;;;5063501;28;20404;-81
2022/12/03 12:48:10;;;;;;;18.90;6.75;;;;;;;;;;5076353;28;20112;-81
2022/12/03 12:50:37;;;;;;;17.70;6.97;;;;;;;;;;5069389;28;20037;-81
2022/12/03 12:53:19;;;;;;;16.00;7.50;;;3.90;99.90;;;;;;5067972;28;20025;-81
2022/12/03 12:55:45;;;;;;;16.80;7.35;;;;;;;;;;5073429;28;20099;-81
2022/12/03 12:58:14;;;;;;;19.02;6.13;;;;;;;;;;5067785;28;20172;-80
2022/12/03 13:00:40;;;;;;;20.15;6.93;;;;;;;;;;5071265;28;20032;-80
2022/12/03 13:03:06;;;;;;;18.70;8.05;;;;;;;;;;5076768;28;20040;-80
2022/12/03 13:05:42;;;;;;;22.77;6.47;;;;;;;;;;5075177;28;20025;-81
2022/12/03 13:08:28;;;;;;;17.88;7.47;;;4.10;99.90;;;;;;5073161;28;20622;-81
2022/12/03 13:10:56;;;;;;;21.98;7.28;;;;;;;;;;5073815;28;20051;-81
2022/12/03 13:13:45;;;;;;;20.98;6.50;;;;;;;;;;5070335;28;20066;-80
2022/12/03 13:16:13;;;;;;;17.55;7.22;;;;;;;;;;5076180;28;20040;-81
2022/12/03 13:19:14;;;;;;;20.27;7.35;;;;;;;;;;5063988;28;20040;-81
2022/12/03 13:21:43;;;;;;;19.00;7.45;;;3.70;99.90;;;;;;5063341;28;20044;-81
2022/12/03 13:24:24;;;;;;;20.05;7.60;;;;;;;;;;5071107;28;20035;-81
2022/12/03 13:26:49;;;;;;;26.92;8.15;;;3.90;99.90;;;;;;5070827;28;20089;-80
2022/12/03 13:29:17;;;;;;;17.10;6.93;;;;;;;;;;5077154;28;20530;-81
2022/12/03 13:31:57;;;;;;;15.88;6.18;;;;;;;;;;5062194;28;20520;-81
2022/12/03 13:34:25;;;;;;;17.67;6.05;;;;;;;;;;5072144;28;20024;-80
2022/12/03 13:36:51;;;;;;;14.65;6.18;;;;;;;;;;5071294;28;20495;-82
2022/12/03 13:39:30;;;;;;;14.18;7.00;;;3.70;99.90;;;;;;5073431;28;20108;-81
2022/12/03 13:44:46;;;;;;;15.15;6.97;;;;;;;;;;5067614;28;20043;-81
2022/12/03 13:47:22;;;;;;;16.55;6.38;;;;;;;;;;5072239;28;20040;-81
2022/12/03 13:49:54;;;;;;;24.10;6.60;;;3.90;99.90;;;;;;5073105;28;20033;-81
2022/12/03 13:52:22;;;;;;;16.20;7.07;;;;;;;;;;5067411;28;20033;-81
2022/12/03 13:54:49;;;;;;;26.33;7.88;;;;;;;;;;5071935;28;20029;-80
2022/12/03 13:57:15;;;;;;;18.35;7.18;;;;;;;;;;5073362;28;20032;-81
2022/12/03 13:59:41;;;;;;;18.75;7.63;;;;;;;;;;5066744;28;20099;-80
2022/12/03 14:02:08;;;;;;;15.73;6.78;;;;;;;;;;5068768;28;20040;-81
2022/12/03 14:04:34;;;;;;;23.92;6.65;;;;;;;;;;5071484;28;20024;-81
2022/12/03 14:07:00;;;;;;;20.80;7.85;;;;;;;;;;5073253;28;20476;-81
2022/12/03 14:09:26;;;;;;;23.77;7.38;;;;;;;;;;5077919;28;20063;-80
2022/12/03 14:14:37;;;;;;;20.48;6.22;;;;;;;;;;5074916;28;20093;-80
2022/12/03 14:17:03;;;;;;;13.68;5.85;;;;;;;;;;5077605;28;20048;-81
2022/12/03 14:19:29;;;;;;;17.02;6.72;;;;;;;;;;5077726;28;21013;-81
2022/12/03 14:21:55;;;;;;;17.27;7.00;;;;;;;;;;5070477;28;20036;-81
2022/12/03 14:24:21;;;;;;;22.83;8.13;;;;;;;;;;5067548;28;20027;-80
2022/12/03 14:26:47;;;;;;;19.90;7.53;;;;;;;;;;5074724;28;20123;-81
2022/12/03 14:29:13;;;;;;;21.60;7.72;;;;;;;;;;5078770;28;20064;-81
2022/12/03 14:31:39;;;;;;;14.45;6.10;;;;;;;;;;5076034;28;20032;-81
2022/12/03 14:34:05;;;;;;;21.65;6.80;;;;;;;;;;5074262;28;20020;-81
2022/12/03 14:36:31;;;;;;;17.00;6.93;;;;;;;;;;5065810;28;20045;-81
2022/12/03 14:38:57;;;;;;;17.92;7.93;;;;;;;;;;5070613;28;20052;-81
2022/12/03 14:44:08;;;;;;;19.13;6.57;;;;;;;;;;5071453;28;20047;-81
2022/12/03 14:46:34;;;;;;;21.75;8.50;;;;;;;;;;5066810;28;20013;-81